createdAt,value
2022-11-27T00:00:17.138Z,3.45
2022-11-27T00:03:07.383Z,4.18
2022-11-27T00:05:55.084Z,3.08
2022-11-27T00:08:24.102Z,3.38
2022-11-27T00:10:55.580Z,2.47
2022-11-27T00:13:27.153Z,2.28
2022-11-27T00:16:15.454Z,2.67
2022-11-27T00:19:00.867Z,3.10
2022-11-27T00:21:48.483Z,2.05
2022-11-27T00:24:22.921Z,2.53
2022-11-27T00:26:52.498Z,2.40
2022-11-27T00:29:21.831Z,3.20
2022-11-27T00:31:50.799Z,3.13
2022-11-27T00:34:24.514Z,2.85
2022-11-27T00:37:09.236Z,4.03
2022-11-27T00:39:57.905Z,3.50
2022-11-27T00:42:45.236Z,3.63
2022-11-27T00:45:23.542Z,2.35
2022-11-27T00:47:52.103Z,2.58
2022-11-27T00:50:24.131Z,2.80
2022-11-27T00:52:56.688Z,2.78
2022-11-27T00:55:28.086Z,3.17
2022-11-27T00:58:13.508Z,2.35
2022-11-27T01:01:02.156Z,2.97
2022-11-27T01:03:44.879Z,2.67
2022-11-27T01:06:35.037Z,2.55
2022-11-27T01:09:03.690Z,3.20
2022-11-27T01:11:33.897Z,3.67
2022-11-27T01:14:04.823Z,3.33
2022-11-27T01:16:42.705Z,4.20
2022-11-27T01:19:30.800Z,3.00
2022-11-27T01:22:18.119Z,2.90
2022-11-27T01:25:05.905Z,3.08
2022-11-27T01:27:55.953Z,2.70
2022-11-27T01:30:33.705Z,3.40
2022-11-27T01:33:20.564Z,2.92
2022-11-27T01:36:08.864Z,3.40
2022-11-27T01:38:59.294Z,2.60
2022-11-27T01:41:46.953Z,2.40
2022-11-27T01:44:27.249Z,2.20
2022-11-27T01:47:14.190Z,3.07
2022-11-27T01:49:54.350Z,3.47
2022-11-27T01:52:28.784Z,3.05
2022-11-27T01:55:06.394Z,2.80
2022-11-27T01:57:41.408Z,2.92
2022-11-27T02:00:14.403Z,2.85
2022-11-27T02:03:02.056Z,2.03
2022-11-27T02:05:33.744Z,2.47
2022-11-27T02:08:05.921Z,3.75
2022-11-27T02:10:42.959Z,2.92
2022-11-27T02:13:18.326Z,2.95
2022-11-27T02:15:53.857Z,3.28
2022-11-27T02:18:24.456Z,3.35
2022-11-27T02:21:01.159Z,3.15
2022-11-27T02:23:46.282Z,2.83
2022-11-27T02:26:26.619Z,3.75
2022-11-27T02:29:11.422Z,2.72
2022-11-27T02:31:54.612Z,2.00
2022-11-27T02:34:23.025Z,4.45
2022-11-27T02:36:59.220Z,3.70
2022-11-27T02:39:39.659Z,2.63
2022-11-27T02:42:12.775Z,3.30
2022-11-27T02:44:59.861Z,3.35
2022-11-27T02:47:48.617Z,4.45
2022-11-27T02:50:25.738Z,4.32
2022-11-27T02:53:18.557Z,5.38
2022-11-27T02:55:49.912Z,3.58
2022-11-27T02:58:22.292Z,5.43
2022-11-27T03:00:52.032Z,4.35
2022-11-27T03:03:35.279Z,4.68
2022-11-27T03:06:27.857Z,3.97
2022-11-27T03:09:10.656Z,4.10
2022-11-27T03:11:51.113Z,4.93
2022-11-27T03:14:24.518Z,3.70
2022-11-27T03:17:18.633Z,5.25
2022-11-27T03:19:49.415Z,4.25
2022-11-27T03:22:17.967Z,3.85
2022-11-27T03:24:46.415Z,4.55
2022-11-27T03:27:16.539Z,4.57
2022-11-27T03:30:02.221Z,4.80
2022-11-27T03:32:49.927Z,5.53
2022-11-27T03:35:37.930Z,5.20
2022-11-27T03:38:19.318Z,4.65
2022-11-27T03:41:16.830Z,4.35
2022-11-27T03:44:19.686Z,4.90
2022-11-27T03:47:03.397Z,5.68
2022-11-27T03:49:44.174Z,5.07
2022-11-27T03:52:26.844Z,5.38
2022-11-27T03:55:07.263Z,4.82
2022-11-27T03:57:49.845Z,4.43
2022-11-27T04:00:21.674Z,5.20
2022-11-27T04:03:12.966Z,4.50
2022-11-27T04:05:48.943Z,3.53
2022-11-27T04:08:19.684Z,4.57
2022-11-27T04:10:56.001Z,5.32
2022-11-27T04:13:37.853Z,6.70
2022-11-27T04:16:17.532Z,5.50
2022-11-27T04:19:05.279Z,4.75
2022-11-27T04:21:51.033Z,5.43
2022-11-27T04:24:19.373Z,5.55
2022-11-27T04:26:48.010Z,6.30
2022-11-27T04:29:16.602Z,5.38
2022-11-27T04:31:59.009Z,4.50
2022-11-27T04:34:44.249Z,5.38
2022-11-27T04:37:32.044Z,6.57
2022-11-27T04:40:15.656Z,6.80
2022-11-27T04:42:48.009Z,5.88
2022-11-27T04:45:18.801Z,5.90
2022-11-27T04:47:49.881Z,4.00
2022-11-27T04:50:18.900Z,4.65
2022-11-27T04:52:48.903Z,6.95
2022-11-27T04:55:29.842Z,5.63
2022-11-27T04:58:09.159Z,5.45
2022-11-27T05:00:44.896Z,5.00
2022-11-27T05:03:26.375Z,5.85
2022-11-27T05:05:57.477Z,6.50
2022-11-27T05:08:40.197Z,6.10
2022-11-27T05:11:13.757Z,6.10
2022-11-27T05:14:13.003Z,5.25
2022-11-27T05:16:45.383Z,5.55
2022-11-27T05:19:14.954Z,6.32
2022-11-27T05:21:46.005Z,5.82
2022-11-27T05:24:19.397Z,5.88
2022-11-27T05:26:48.893Z,4.88
2022-11-27T05:29:17.460Z,5.57
2022-11-27T05:31:48.492Z,5.47
2022-11-27T05:34:16.872Z,5.78
2022-11-27T05:37:04.110Z,5.57
2022-11-27T05:39:44.516Z,6.57
2022-11-27T05:42:30.604Z,5.72
2022-11-27T05:45:06.968Z,5.70
2022-11-27T05:47:45.474Z,6.18
2022-11-27T05:50:14.287Z,5.65
2022-11-27T05:52:50.569Z,6.47
2022-11-27T05:55:19.599Z,5.32
2022-11-27T05:57:48.263Z,6.15
2022-11-27T06:00:19.144Z,5.68
2022-11-27T06:03:02.881Z,5.88
2022-11-27T06:05:52.907Z,3.88
2022-11-27T06:08:23.216Z,5.20
2022-11-27T06:10:54.044Z,6.43
2022-11-27T06:13:22.180Z,4.47
2022-11-27T06:15:50.944Z,5.07
2022-11-27T06:18:20.651Z,5.25
2022-11-27T06:20:53.127Z,4.47
2022-11-27T06:23:23.966Z,4.32
2022-11-27T06:25:55.894Z,5.63
2022-11-27T06:30:58.056Z,4.72
2022-11-27T06:33:38.254Z,4.82
2022-11-27T06:36:23.903Z,5.57
2022-11-27T06:39:01.067Z,5.20
2022-11-27T06:41:41.576Z,4.78
2022-11-27T06:44:27.417Z,5.32
2022-11-27T06:47:09.208Z,5.07
2022-11-27T06:49:48.315Z,5.70
2022-11-27T06:52:27.893Z,5.18
2022-11-27T06:55:12.589Z,4.85
2022-11-27T06:57:50.729Z,5.35
2022-11-27T07:03:10.044Z,5.10
2022-11-27T07:05:38.849Z,5.00
2022-11-27T07:08:10.612Z,5.25
2022-11-27T07:10:39.805Z,5.50
2022-11-27T07:13:08.330Z,4.80
2022-11-27T07:15:36.904Z,4.28
2022-11-27T07:18:05.291Z,5.28
2022-11-27T07:20:34.566Z,4.78
2022-11-27T07:23:13.770Z,5.50
2022-11-27T07:25:50.363Z,4.75
2022-11-27T07:28:26.689Z,4.28
2022-11-27T07:30:58.715Z,3.97
2022-11-27T07:33:37.068Z,4.45
2022-11-27T07:36:08.500Z,5.00
2022-11-27T07:38:39.827Z,4.78
2022-11-27T07:41:09.651Z,5.80
2022-11-27T07:43:38.147Z,4.07
2022-11-27T07:46:17.726Z,4.40
2022-11-27T07:48:46.510Z,4.45
2022-11-27T07:51:34.085Z,4.80
2022-11-27T07:54:21.868Z,3.95
2022-11-27T07:57:09.449Z,4.60
2022-11-27T07:59:49.026Z,5.07
2022-11-27T08:02:30.443Z,4.22
2022-11-27T08:05:13.429Z,3.78
2022-11-27T08:08:04.527Z,4.05
2022-11-27T08:10:51.379Z,3.55
2022-11-27T08:13:20.688Z,3.75
2022-11-27T08:15:54.157Z,2.92
2022-11-27T08:18:22.813Z,4.00
2022-11-27T08:20:53.946Z,4.00
2022-11-27T08:23:25.292Z,3.83
2022-11-27T08:25:53.866Z,4.97
2022-11-27T08:28:22.790Z,3.95
2022-11-27T08:31:01.602Z,4.68
2022-11-27T08:33:46.251Z,3.38
2022-11-27T08:36:18.435Z,3.70
2022-11-27T08:38:51.684Z,3.22
2022-11-27T08:41:20.003Z,2.63
2022-11-27T08:44:04.583Z,3.00
2022-11-27T08:46:37.639Z,4.47
2022-11-27T08:49:08.825Z,3.30
2022-11-27T08:51:37.569Z,3.03
2022-11-27T08:54:25.493Z,3.53
2022-11-27T08:57:15.833Z,2.97
2022-11-27T08:59:55.470Z,2.78
2022-11-27T09:02:43.152Z,2.85
2022-11-27T09:05:25.381Z,3.33
2022-11-27T09:07:57.056Z,3.05
2022-11-27T09:10:25.773Z,3.22
2022-11-27T09:12:56.185Z,3.45
2022-11-27T09:15:27.570Z,3.30
2022-11-27T09:17:59.310Z,3.40
2022-11-27T09:20:31.925Z,3.10
2022-11-27T09:23:04.304Z,2.83
2022-11-27T09:25:33.836Z,2.85
2022-11-27T09:28:02.503Z,3.10
2022-11-27T09:30:32.620Z,3.05
2022-11-27T09:33:20.816Z,3.72
2022-11-27T09:36:10.267Z,2.97
2022-11-27T09:38:45.614Z,3.15
2022-11-27T09:41:40.183Z,3.20
2022-11-27T09:44:31.657Z,2.35
2022-11-27T09:47:07.821Z,3.15
2022-11-27T09:49:40.959Z,3.80
2022-11-27T09:52:32.594Z,2.67
2022-11-27T09:55:04.254Z,6.13
2022-11-27T09:57:47.795Z,4.80
2022-11-27T10:00:21.220Z,3.33
2022-11-27T10:02:58.581Z,5.50
2022-11-27T10:05:35.395Z,4.93
2022-11-27T10:08:39.226Z,5.13
2022-11-27T10:11:30.405Z,3.40
2022-11-27T10:14:21.574Z,4.57
2022-11-27T10:16:55.971Z,4.33
2022-11-27T10:19:36.046Z,4.55
2022-11-27T10:22:32.159Z,3.33
2022-11-27T10:25:03.367Z,3.42
2022-11-27T10:27:40.702Z,3.60
2022-11-27T10:30:17.234Z,3.88
2022-11-27T10:33:11.326Z,3.17
2022-11-27T10:35:48.631Z,3.60
2022-11-27T10:38:22.592Z,3.65
2022-11-27T10:41:18.618Z,3.60
2022-11-27T10:44:01.860Z,3.20
2022-11-27T10:46:34.973Z,14.52
2022-11-27T10:49:03.699Z,6.43
2022-11-27T10:51:34.974Z,3.28
2022-11-27T10:54:08.103Z,3.45
2022-11-27T10:56:36.505Z,4.38
2022-11-27T10:59:12.761Z,4.13
2022-11-27T11:01:48.864Z,4.18
2022-11-27T11:04:39.187Z,3.47
2022-11-27T11:07:25.210Z,3.08
2022-11-27T11:10:08.619Z,4.38
2022-11-27T11:12:40.226Z,3.55
2022-11-27T11:15:11.926Z,4.07
2022-11-27T11:17:40.880Z,4.20
2022-11-27T11:20:16.671Z,4.15
2022-11-27T11:23:00.038Z,3.72
2022-11-27T11:25:35.127Z,5.05
2022-11-27T11:28:19.595Z,4.18
2022-11-27T11:31:05.122Z,4.13
2022-11-27T11:33:41.860Z,4.50
2022-11-27T11:36:18.244Z,3.97
2022-11-27T11:38:53.066Z,3.70
2022-11-27T11:41:25.564Z,3.60
2022-11-27T11:43:56.594Z,3.65
2022-11-27T11:46:29.787Z,4.07
2022-11-27T11:49:02.276Z,3.20
2022-11-27T11:51:40.412Z,3.55
2022-11-27T11:54:23.138Z,4.60
2022-11-27T11:56:52.755Z,3.83
2022-11-27T11:59:27.070Z,3.97
2022-11-27T12:01:59.007Z,3.80
2022-11-27T12:04:48.907Z,3.00
2022-11-27T12:07:26.679Z,3.40
2022-11-27T12:10:03.585Z,3.63
2022-11-27T12:12:56.547Z,3.60
2022-11-27T12:15:39.652Z,3.47
2022-11-27T12:18:26.269Z,3.70
2022-11-27T12:20:55.105Z,3.13
2022-11-27T12:23:28.200Z,3.45
2022-11-27T12:26:10.214Z,3.40
2022-11-27T12:28:59.388Z,3.08
2022-11-27T12:31:39.830Z,2.20
2022-11-27T12:34:26.127Z,2.53
2022-11-27T12:37:13.632Z,2.87
2022-11-27T12:40:09.003Z,3.40
2022-11-27T12:42:37.425Z,3.58
2022-11-27T12:45:26.780Z,2.42
2022-11-27T12:48:24.649Z,3.22
2022-11-27T12:51:01.856Z,3.20
2022-11-27T12:53:39.781Z,3.65
2022-11-27T12:56:25.937Z,2.88
2022-11-27T12:59:00.149Z,2.25
2022-11-27T13:01:46.641Z,2.95
2022-11-27T13:04:25.382Z,3.17
2022-11-27T13:07:07.825Z,2.95
2022-11-27T13:09:41.995Z,2.67
2022-11-27T13:12:17.157Z,2.65
2022-11-27T13:14:53.383Z,2.97
2022-11-27T13:17:26.790Z,2.70
2022-11-27T13:19:55.082Z,3.05
2022-11-27T13:22:29.513Z,5.03
2022-11-27T13:25:01.330Z,2.78
2022-11-27T13:27:33.487Z,2.38
2022-11-27T13:30:09.019Z,2.92
2022-11-27T13:33:01.641Z,2.75
2022-11-27T13:35:42.013Z,2.35
2022-11-27T13:38:25.448Z,2.83
2022-11-27T13:40:55.906Z,2.55
2022-11-27T13:43:29.827Z,2.83
2022-11-27T13:46:09.936Z,2.22
2022-11-27T13:48:41.584Z,2.47
2022-11-27T13:51:23.213Z,2.25
2022-11-27T13:54:10.073Z,2.90
2022-11-27T13:56:42.000Z,2.72
2022-11-27T13:59:22.697Z,1.90
2022-11-27T14:02:05.342Z,2.42
2022-11-27T14:04:34.569Z,2.30
2022-11-27T14:07:11.719Z,2.58
2022-11-27T14:09:45.337Z,2.72
2022-11-27T14:12:18.355Z,2.65
2022-11-27T14:15:03.569Z,2.60
2022-11-27T14:17:41.555Z,2.55
2022-11-27T14:20:17.807Z,2.40
2022-11-27T14:23:10.378Z,4.10
2022-11-27T14:25:38.060Z,3.55
2022-11-27T14:28:36.171Z,2.17
2022-11-27T14:31:04.993Z,2.15
2022-11-27T14:34:13.605Z,2.97
2022-11-27T14:36:43.186Z,3.40
2022-11-27T14:39:29.371Z,2.47
2022-11-27T14:42:23.057Z,2.55
2022-11-27T14:45:07.575Z,2.47
2022-11-27T14:47:41.976Z,2.15
2022-11-27T14:50:14.257Z,2.85
2022-11-27T14:52:47.585Z,2.47
2022-11-27T14:55:16.599Z,2.67
2022-11-27T14:57:46.783Z,2.45
2022-11-27T15:00:19.316Z,2.58
2022-11-27T15:03:12.628Z,2.58
2022-11-27T15:06:01.624Z,3.00
2022-11-27T15:08:36.841Z,2.08
2022-11-27T15:11:35.782Z,2.55
2022-11-27T15:14:14.734Z,2.33
2022-11-27T15:19:36.606Z,2.83
2022-11-27T15:22:21.422Z,2.58
2022-11-27T15:25:03.883Z,4.90
2022-11-27T15:27:52.864Z,2.78
2022-11-27T15:30:21.894Z,2.55
2022-11-27T15:33:03.932Z,2.72
2022-11-27T15:35:35.243Z,2.05
2022-11-27T15:38:12.371Z,2.75
2022-11-27T15:40:42.646Z,2.45
2022-11-27T15:43:14.795Z,2.97
2022-11-27T15:45:45.994Z,3.25
2022-11-27T15:48:25.258Z,2.88
2022-11-27T15:50:53.994Z,2.85
2022-11-27T15:53:22.395Z,3.75
2022-11-27T15:55:53.746Z,2.80
2022-11-27T15:58:23.512Z,2.97
2022-11-27T16:00:55.767Z,2.97
2022-11-27T16:03:33.915Z,2.88
2022-11-27T16:06:08.102Z,2.70
2022-11-27T16:08:44.894Z,3.00
2022-11-27T16:11:14.787Z,2.55
2022-11-27T16:13:43.987Z,2.58
2022-11-27T16:16:15.071Z,2.70
2022-11-27T16:18:44.343Z,3.03
2022-11-27T16:21:15.569Z,2.88
2022-11-27T16:23:46.639Z,2.70
2022-11-27T16:26:15.620Z,2.50
2022-11-27T16:28:44.372Z,2.42
2022-11-27T16:31:31.398Z,2.85
2022-11-27T16:34:05.979Z,2.95
2022-11-27T16:36:35.544Z,3.13
2022-11-27T16:39:07.364Z,2.38
2022-11-27T16:41:55.132Z,2.88
2022-11-27T16:44:44.411Z,2.70
2022-11-27T16:47:33.311Z,2.25
2022-11-27T16:50:21.284Z,3.22
2022-11-27T16:52:55.413Z,3.00
2022-11-27T16:55:29.167Z,2.55
2022-11-27T16:58:00.881Z,3.42
2022-11-27T17:00:34.367Z,3.00
2022-11-27T17:03:25.542Z,2.50
2022-11-27T17:06:11.605Z,2.80
2022-11-27T17:09:00.670Z,2.28
2022-11-27T17:11:49.481Z,2.97
2022-11-27T17:14:36.991Z,4.22
2022-11-27T17:17:24.593Z,2.22
2022-11-27T17:20:12.703Z,2.60
2022-11-27T17:23:00.687Z,2.60
2022-11-27T17:25:32.467Z,2.78
2022-11-27T17:28:02.256Z,2.40
2022-11-27T17:30:35.140Z,2.08
2022-11-27T17:33:26.879Z,2.40
2022-11-27T17:38:45.406Z,3.10
2022-11-27T17:41:22.110Z,2.50
2022-11-27T17:44:09.746Z,2.50
2022-11-27T17:46:40.117Z,2.08
2022-11-27T17:49:22.909Z,4.60
2022-11-27T17:52:06.965Z,2.63
2022-11-27T17:54:49.165Z,2.78
2022-11-27T17:57:25.597Z,2.53
2022-11-27T18:00:01.427Z,3.55
2022-11-27T18:02:49.233Z,3.08
2022-11-27T18:05:38.110Z,2.28
2022-11-27T18:08:16.441Z,3.17
2022-11-27T18:10:45.916Z,2.33
2022-11-27T18:13:14.782Z,3.00
2022-11-27T18:15:47.549Z,2.85
2022-11-27T18:18:26.847Z,2.33
2022-11-27T18:21:18.466Z,2.65
2022-11-27T18:27:10.152Z,2.95
2022-11-27T18:29:53.313Z,2.97
2022-11-27T18:32:40.496Z,2.47
2022-11-27T18:35:18.527Z,2.35
2022-11-27T18:38:03.587Z,2.50
2022-11-27T18:40:48.732Z,2.75
2022-11-27T18:43:39.017Z,2.60
2022-11-27T18:46:22.196Z,2.15
2022-11-27T18:48:59.234Z,2.65
2022-11-27T18:51:27.785Z,2.88
2022-11-27T18:53:57.232Z,2.97
2022-11-27T18:56:27.449Z,3.42
2022-11-27T18:58:57.132Z,3.05
2022-11-27T19:01:27.786Z,8.18
2022-11-27T19:03:57.685Z,3.55
2022-11-27T19:06:26.488Z,2.50
2022-11-27T19:08:55.031Z,2.67
2022-11-27T19:11:26.417Z,3.40
2022-11-27T19:13:56.476Z,2.72
2022-11-27T19:16:26.931Z,2.38
2022-11-27T19:18:58.325Z,3.03
2022-11-27T19:21:28.156Z,3.00
2022-11-27T19:24:00.348Z,2.80
2022-11-27T19:26:43.453Z,3.42
2022-11-27T19:29:33.577Z,3.33
2022-11-27T19:32:21.403Z,2.80
2022-11-27T19:35:10.347Z,2.83
2022-11-27T19:38:00.746Z,2.22
2022-11-27T19:40:48.728Z,2.90
2022-11-27T19:43:36.384Z,2.88
2022-11-27T19:46:25.696Z,2.88
2022-11-27T19:49:15.103Z,3.03
2022-11-27T19:52:06.208Z,3.08
2022-11-27T19:54:54.017Z,2.92
2022-11-27T19:57:39.635Z,2.83
2022-11-27T20:00:08.669Z,3.40
2022-11-27T20:03:02.259Z,3.10
2022-11-27T20:05:34.150Z,2.60
2022-11-27T20:08:03.777Z,4.28
2022-11-27T20:10:51.615Z,3.13
2022-11-27T20:13:39.298Z,3.55
2022-11-27T20:19:02.598Z,2.15
2022-11-27T20:21:52.979Z,2.20
2022-11-27T20:24:58.177Z,3.50
2022-11-27T20:27:51.099Z,4.57
2022-11-27T20:30:41.158Z,3.67
2022-11-27T20:33:20.994Z,3.78
2022-11-27T20:35:49.963Z,2.25
2022-11-27T20:38:18.740Z,3.05
2022-11-27T20:40:47.121Z,3.50
2022-11-27T20:43:27.934Z,3.08
2022-11-27T20:46:08.686Z,3.35
2022-11-27T20:48:50.898Z,3.80
2022-11-27T20:51:28.372Z,3.55
2022-11-27T20:54:16.250Z,2.65
2022-11-27T20:57:08.277Z,3.25
2022-11-27T20:59:58.607Z,2.63
2022-11-27T21:02:49.344Z,2.53
2022-11-27T21:05:36.995Z,4.13
2022-11-27T21:08:06.217Z,4.20
2022-11-27T21:10:36.440Z,3.40
2022-11-27T21:13:07.018Z,2.50
2022-11-27T21:15:54.705Z,4.20
2022-11-27T21:18:40.253Z,4.13
2022-11-27T21:21:19.511Z,3.47
2022-11-27T21:24:03.776Z,3.50
2022-11-27T21:26:52.527Z,3.58
2022-11-27T21:29:32.868Z,5.10
2022-11-27T21:32:23.079Z,4.35
2022-11-27T21:35:10.724Z,5.55
2022-11-27T21:37:43.210Z,4.32
2022-11-27T21:40:15.922Z,3.80
2022-11-27T21:42:52.092Z,4.22
2022-11-27T21:45:21.418Z,4.13
2022-11-27T21:47:51.602Z,4.13
2022-11-27T21:50:20.936Z,3.45
2022-11-27T21:52:50.152Z,3.47
2022-11-27T21:55:25.753Z,3.80
2022-11-27T21:57:56.633Z,3.83
2022-11-27T22:00:38.677Z,4.35
2022-11-27T22:03:28.836Z,3.30
2022-11-27T22:11:28.697Z,4.60
2022-11-27T22:14:09.781Z,4.28
2022-11-27T22:16:47.798Z,4.13
2022-11-27T22:19:17.913Z,4.88
2022-11-27T22:21:46.808Z,5.07
2022-11-27T22:24:22.149Z,4.80
2022-11-27T22:26:53.945Z,4.00
2022-11-27T22:29:24.662Z,4.97
2022-11-27T22:31:54.610Z,4.95
2022-11-27T22:34:23.816Z,4.35
2022-11-27T22:36:52.734Z,4.22
2022-11-27T22:39:21.517Z,4.80
2022-11-27T22:42:12.080Z,4.78
2022-11-27T22:44:58.289Z,4.28
2022-11-27T22:50:26.240Z,5.20
2022-11-27T22:55:30.347Z,4.60
2022-11-27T22:58:03.972Z,4.55
2022-11-27T23:00:35.160Z,5.20
2022-11-27T23:03:25.762Z,5.00
2022-11-27T23:05:55.093Z,6.10
2022-11-27T23:08:26.757Z,5.20
2022-11-27T23:10:58.136Z,4.07
2022-11-27T23:13:49.647Z,3.90
2022-11-27T23:16:19.487Z,4.80
2022-11-27T23:19:08.637Z,4.55
2022-11-27T23:21:38.808Z,4.55
2022-11-27T23:24:08.854Z,4.70
2022-11-27T23:26:37.877Z,4.40
2022-11-27T23:29:07.472Z,4.18
2022-11-27T23:31:36.664Z,4.00
2022-11-27T23:34:07.505Z,6.70
2022-11-27T23:36:47.931Z,3.92
2022-11-27T23:39:23.127Z,3.90
2022-11-27T23:42:10.800Z,5.35
2022-11-27T23:45:00.865Z,4.05
2022-11-27T23:47:51.489Z,5.38
2022-11-27T23:50:42.820Z,4.93
2022-11-27T23:53:30.560Z,4.15
2022-11-27T23:56:15.874Z,5.20
2022-11-27T23:59:00.638Z,5.57
